createdAt,value
2022-10-03T00:01:20.928Z,8.20
2022-10-03T00:04:06.475Z,8.30
2022-10-03T00:06:42.732Z,8.30
2022-10-03T00:09:16.113Z,8.40
2022-10-03T00:11:56.284Z,8.40
2022-10-03T00:14:41.222Z,8.40
2022-10-03T00:17:27.259Z,8.30
2022-10-03T00:20:00.224Z,8.20
2022-10-03T00:22:29.719Z,8.10
2022-10-03T00:25:02.557Z,7.90
2022-10-03T00:27:29.241Z,8.20
2022-10-03T00:30:05.458Z,7.80
2022-10-03T00:32:50.976Z,7.70
2022-10-03T00:35:36.579Z,7.70
2022-10-03T00:38:03.459Z,7.70
2022-10-03T00:40:45.450Z,8.20
2022-10-03T00:43:12.237Z,7.80
2022-10-03T00:45:41.969Z,7.90
2022-10-03T00:48:14.461Z,7.80
2022-10-03T00:50:53.207Z,7.70
2022-10-03T00:53:35.357Z,7.70
2022-10-03T00:56:23.848Z,7.70
2022-10-03T00:58:56.565Z,7.80
2022-10-03T01:01:34.342Z,8.70
2022-10-03T01:04:01.686Z,7.70
2022-10-03T01:06:34.537Z,8.50
2022-10-03T01:09:23.120Z,7.40
2022-10-03T01:11:55.888Z,7.30
2022-10-03T01:14:38.844Z,7.20
2022-10-03T01:17:25.692Z,7.20
2022-10-03T01:19:59.254Z,7.60
2022-10-03T01:22:44.178Z,7.30
2022-10-03T01:25:19.817Z,7.20
2022-10-03T01:28:05.435Z,7.10
2022-10-03T01:30:43.127Z,8.00
2022-10-03T01:33:13.557Z,7.00
2022-10-03T01:36:03.157Z,7.30
2022-10-03T01:38:50.170Z,7.10
2022-10-03T01:41:35.412Z,7.70
2022-10-03T01:44:01.979Z,7.10
2022-10-03T01:46:35.130Z,7.10
2022-10-03T01:49:08.982Z,7.10
2022-10-03T01:51:55.005Z,7.30
2022-10-03T01:54:33.918Z,7.00
2022-10-03T01:57:01.847Z,7.00
2022-10-03T01:59:37.929Z,8.60
2022-10-03T02:02:17.557Z,6.90
2022-10-03T02:04:44.161Z,6.90
2022-10-03T02:07:30.686Z,6.90
2022-10-03T02:10:20.684Z,7.10
2022-10-03T02:12:58.766Z,7.20
2022-10-03T02:15:33.103Z,7.30
2022-10-03T02:18:18.409Z,9.50
2022-10-03T02:20:51.023Z,7.40
2022-10-03T02:23:23.909Z,7.40
2022-10-03T02:26:02.761Z,7.40
2022-10-03T02:28:48.472Z,7.30
2022-10-03T02:31:35.632Z,7.30
2022-10-03T02:34:14.919Z,8.30
2022-10-03T02:36:44.548Z,7.40
2022-10-03T02:39:46.845Z,7.40
2022-10-03T02:42:25.473Z,7.40
2022-10-03T02:44:55.144Z,7.40
2022-10-03T02:47:48.728Z,7.30
2022-10-03T02:50:19.168Z,7.20
2022-10-03T02:52:51.843Z,7.10
2022-10-03T02:55:37.419Z,7.10
2022-10-03T02:58:27.562Z,7.10
2022-10-03T03:01:13.125Z,7.10
2022-10-03T03:03:51.933Z,7.10
2022-10-03T03:06:19.635Z,7.10
2022-10-03T03:08:57.117Z,7.30
2022-10-03T03:11:33.330Z,7.00
2022-10-03T03:14:18.895Z,7.00
2022-10-03T03:17:04.316Z,7.00
2022-10-03T03:19:49.304Z,7.10
2022-10-03T03:22:16.390Z,7.10
2022-10-03T03:25:01.820Z,8.20
2022-10-03T03:27:52.458Z,7.30
2022-10-03T03:30:21.019Z,7.30
2022-10-03T03:32:56.993Z,7.30
2022-10-03T03:35:23.736Z,7.40
2022-10-03T03:38:02.861Z,7.50
2022-10-03T03:40:29.637Z,7.60
2022-10-03T03:43:09.150Z,7.70
2022-10-03T03:45:56.522Z,8.90
2022-10-03T03:48:42.501Z,7.70
2022-10-03T03:51:15.204Z,7.70
2022-10-03T03:53:51.037Z,7.70
2022-10-03T03:56:36.733Z,7.70
2022-10-03T03:59:06.466Z,7.70
2022-10-03T04:01:42.366Z,7.70
2022-10-03T04:04:28.234Z,7.70
2022-10-03T04:07:21.653Z,7.70
2022-10-03T04:09:48.772Z,7.60
2022-10-03T04:12:21.937Z,7.60
2022-10-03T04:15:04.739Z,7.60
2022-10-03T04:17:50.100Z,7.50
2022-10-03T04:20:35.609Z,9.80
2022-10-03T04:23:02.204Z,7.50
2022-10-03T04:25:40.700Z,8.80
2022-10-03T04:28:27.374Z,7.60
2022-10-03T04:31:06.616Z,7.60
2022-10-03T04:33:36.225Z,7.60
2022-10-03T04:36:21.784Z,7.60
2022-10-03T04:39:04.763Z,7.50
2022-10-03T04:41:50.536Z,7.50
2022-10-03T04:44:40.486Z,7.50
2022-10-03T04:47:13.791Z,7.50
2022-10-03T04:50:00.641Z,9.60
2022-10-03T04:52:40.080Z,9.10
2022-10-03T04:55:27.728Z,7.60
2022-10-03T04:58:16.394Z,7.70
2022-10-03T05:01:01.540Z,7.70
2022-10-03T05:03:46.426Z,7.70
2022-10-03T05:06:26.483Z,7.70
2022-10-03T05:08:59.666Z,7.70
2022-10-03T05:11:41.169Z,7.70
2022-10-03T05:14:22.614Z,7.70
2022-10-03T05:17:05.072Z,7.70
2022-10-03T05:19:53.275Z,7.80
2022-10-03T05:22:32.936Z,7.80
2022-10-03T05:25:18.362Z,7.90
2022-10-03T05:27:51.868Z,7.90
2022-10-03T05:30:40.381Z,10.00
2022-10-03T05:33:08.839Z,8.10
2022-10-03T05:35:54.453Z,8.10
2022-10-03T05:38:29.535Z,8.20
2022-10-03T05:40:59.313Z,8.30
2022-10-03T05:43:58.334Z,8.30
2022-10-03T05:46:37.128Z,8.30
2022-10-03T05:49:23.697Z,8.30
2022-10-03T05:52:16.906Z,8.30
2022-10-03T05:55:07.497Z,8.40
2022-10-03T05:57:48.691Z,8.40
2022-10-03T06:00:20.268Z,8.40
2022-10-03T06:02:46.836Z,8.50
2022-10-03T06:05:34.881Z,10.50
2022-10-03T06:08:20.587Z,8.60
2022-10-03T06:10:56.298Z,8.70
2022-10-03T06:13:41.687Z,8.60
2022-10-03T06:16:08.297Z,8.60
2022-10-03T06:18:58.325Z,10.30
2022-10-03T06:21:24.882Z,8.50
2022-10-03T06:23:51.411Z,10.60
2022-10-03T06:26:37.487Z,8.60
2022-10-03T06:29:22.513Z,8.60
2022-10-03T06:32:07.882Z,8.60
2022-10-03T06:34:40.593Z,8.70
2022-10-03T06:37:07.132Z,8.80
2022-10-03T06:39:36.784Z,9.70
2022-10-03T06:42:21.772Z,8.90
2022-10-03T06:44:48.310Z,9.00
2022-10-03T06:47:51.338Z,10.50
2022-10-03T06:50:19.099Z,9.20
2022-10-03T06:52:53.212Z,9.40
2022-10-03T06:55:38.592Z,12.20
2022-10-03T06:58:23.501Z,9.40
2022-10-03T07:00:56.474Z,9.50
2022-10-03T07:03:51.247Z,9.50
2022-10-03T07:06:37.238Z,9.50
2022-10-03T07:09:19.425Z,9.60
2022-10-03T07:11:56.151Z,9.60
2022-10-03T07:14:38.405Z,9.60
2022-10-03T07:17:23.128Z,9.50
2022-10-03T07:20:07.006Z,9.50
2022-10-03T07:22:52.229Z,9.50
2022-10-03T07:25:31.099Z,9.50
2022-10-03T07:28:03.886Z,9.50
2022-10-03T07:30:45.316Z,9.50
2022-10-03T07:33:33.354Z,9.60
2022-10-03T07:36:32.960Z,9.60
2022-10-03T07:39:07.072Z,9.60
2022-10-03T07:41:52.311Z,9.50
2022-10-03T07:44:35.806Z,9.60
2022-10-03T07:47:04.188Z,9.30
2022-10-03T07:49:40.339Z,9.60
2022-10-03T07:52:26.110Z,9.50
2022-10-03T07:54:58.779Z,9.60
2022-10-03T07:57:28.402Z,9.50
2022-10-03T08:00:03.466Z,9.60
2022-10-03T08:02:42.414Z,9.60
2022-10-03T08:05:38.791Z,9.70
2022-10-03T08:08:23.900Z,9.70
2022-10-03T08:11:17.013Z,9.70
2022-10-03T08:14:02.445Z,9.70
2022-10-03T08:16:47.815Z,9.70
2022-10-03T08:19:20.917Z,9.70
2022-10-03T08:21:58.459Z,9.80
2022-10-03T08:24:37.213Z,9.90
2022-10-03T08:27:22.698Z,10.10
2022-10-03T08:30:04.072Z,10.20
2022-10-03T08:32:56.054Z,10.20
2022-10-03T08:35:22.639Z,10.20
2022-10-03T08:38:07.412Z,10.30
2022-10-03T08:40:56.659Z,10.40
2022-10-03T08:43:32.230Z,10.70
2022-10-03T08:46:03.753Z,10.60
2022-10-03T08:48:33.419Z,11.70
2022-10-03T08:50:59.967Z,10.70
2022-10-03T08:53:47.323Z,12.30
2022-10-03T08:56:32.537Z,10.80
2022-10-03T08:58:59.125Z,10.90
2022-10-03T09:01:44.722Z,11.00
2022-10-03T09:04:27.924Z,11.00
2022-10-03T09:07:17.655Z,11.00
2022-10-03T09:09:44.806Z,11.10
2022-10-03T09:12:32.981Z,13.20
2022-10-03T09:15:05.417Z,11.20
2022-10-03T09:17:51.723Z,11.20
2022-10-03T09:20:38.610Z,11.10
2022-10-03T09:23:14.157Z,11.20
2022-10-03T09:25:57.195Z,12.00
2022-10-03T09:28:26.804Z,11.30
2022-10-03T09:30:56.509Z,11.40
2022-10-03T09:33:43.363Z,12.40
2022-10-03T09:36:28.745Z,12.50
2022-10-03T09:38:55.359Z,11.80
2022-10-03T09:41:30.461Z,13.40
2022-10-03T09:44:15.809Z,12.00
2022-10-03T09:46:46.605Z,12.00
2022-10-03T09:49:19.303Z,12.10
2022-10-03T09:52:03.540Z,12.00
2022-10-03T09:54:51.241Z,12.00
2022-10-03T09:57:26.060Z,11.90
2022-10-03T09:59:59.742Z,12.10
2022-10-03T10:02:45.048Z,13.40
2022-10-03T10:05:26.876Z,12.10
2022-10-03T10:08:02.638Z,12.00
2022-10-03T10:10:32.318Z,12.00
2022-10-03T10:13:08.139Z,12.00
2022-10-03T10:15:53.712Z,12.10
2022-10-03T10:18:26.310Z,12.10
2022-10-03T10:21:11.487Z,12.10
2022-10-03T10:24:00.924Z,12.20
2022-10-03T10:26:30.558Z,12.10
2022-10-03T10:29:17.061Z,12.20
2022-10-03T10:31:56.157Z,12.20
2022-10-03T10:34:41.672Z,12.20
2022-10-03T10:37:22.579Z,12.20
2022-10-03T10:39:53.238Z,12.20
2022-10-03T10:42:32.017Z,12.30
2022-10-03T10:45:13.859Z,12.30
2022-10-03T10:47:59.219Z,12.30
2022-10-03T10:50:37.678Z,12.30
2022-10-03T10:53:22.837Z,12.30
2022-10-03T10:55:55.389Z,12.20
2022-10-03T10:58:40.469Z,12.20
2022-10-03T11:01:38.039Z,12.30
2022-10-03T11:04:04.665Z,12.30
2022-10-03T11:06:50.409Z,13.80
2022-10-03T11:09:20.066Z,12.50
2022-10-03T11:11:49.607Z,12.60
2022-10-03T11:14:30.114Z,12.70
2022-10-03T11:17:35.484Z,12.90
2022-10-03T11:20:20.574Z,13.10
2022-10-03T11:22:58.923Z,13.20
2022-10-03T11:25:40.485Z,13.30
2022-10-03T11:28:20.048Z,13.50
2022-10-03T11:30:50.883Z,13.50
2022-10-03T11:33:35.990Z,13.50
2022-10-03T11:36:21.611Z,13.40
2022-10-03T11:39:06.854Z,13.30
2022-10-03T11:41:33.380Z,13.20
2022-10-03T11:44:04.289Z,14.50
2022-10-03T11:46:47.634Z,13.40
2022-10-03T11:49:32.038Z,13.40
2022-10-03T11:52:24.734Z,13.60
2022-10-03T11:55:02.585Z,13.70
2022-10-03T11:57:37.365Z,14.10
2022-10-03T12:00:16.056Z,14.20
2022-10-03T12:02:42.695Z,14.40
2022-10-03T12:05:19.839Z,15.20
2022-10-03T12:08:05.065Z,14.40
2022-10-03T12:10:47.517Z,15.40
2022-10-03T12:13:17.171Z,14.40
2022-10-03T12:15:54.542Z,15.40
2022-10-03T12:18:47.471Z,14.40
2022-10-03T12:21:21.078Z,14.30
2022-10-03T12:24:06.159Z,14.20
2022-10-03T12:26:35.480Z,14.10
2022-10-03T12:29:06.875Z,14.00
2022-10-03T12:31:38.810Z,14.70
2022-10-03T12:34:08.719Z,14.20
2022-10-03T12:36:44.582Z,14.10
2022-10-03T12:39:37.705Z,14.10
2022-10-03T12:42:07.054Z,13.90
2022-10-03T12:44:33.605Z,13.80
2022-10-03T12:47:43.605Z,15.10
2022-10-03T12:50:30.037Z,13.60
2022-10-03T12:53:07.423Z,13.50
2022-10-03T12:55:36.434Z,14.50
2022-10-03T12:58:18.354Z,14.60
2022-10-03T13:00:46.062Z,13.40
2022-10-03T13:03:21.430Z,13.50
2022-10-03T13:06:07.126Z,13.40
2022-10-03T13:08:43.339Z,13.50
2022-10-03T13:11:18.206Z,13.60
2022-10-03T13:14:03.971Z,14.80
2022-10-03T13:16:36.094Z,13.90
2022-10-03T13:19:11.034Z,14.10
2022-10-03T13:21:54.986Z,15.80
2022-10-03T13:24:30.301Z,14.50
2022-10-03T13:27:02.962Z,16.10
2022-10-03T13:29:50.868Z,15.50
2022-10-03T13:32:22.368Z,14.30
2022-10-03T13:34:57.925Z,14.30
2022-10-03T13:37:35.613Z,14.20
2022-10-03T13:40:08.125Z,14.10
2022-10-03T13:42:39.871Z,14.80
2022-10-03T13:45:18.287Z,14.10
2022-10-03T13:47:53.847Z,14.10
2022-10-03T13:50:26.570Z,14.10
2022-10-03T13:53:28.647Z,14.10
2022-10-03T13:55:58.401Z,14.20
2022-10-03T13:58:51.302Z,15.70
2022-10-03T14:01:38.532Z,14.40
2022-10-03T14:04:24.526Z,14.80
2022-10-03T14:07:29.520Z,14.50
2022-10-03T14:10:13.001Z,14.50
2022-10-03T14:12:56.136Z,14.50
2022-10-03T14:15:33.489Z,14.50
2022-10-03T14:18:00.147Z,14.50
2022-10-03T14:20:26.825Z,15.80
2022-10-03T14:22:59.431Z,14.50
2022-10-03T14:25:34.590Z,14.50
2022-10-03T14:28:14.549Z,14.60
2022-10-03T14:31:05.480Z,14.60
2022-10-03T14:33:40.765Z,14.70
2022-10-03T14:36:26.176Z,14.70
2022-10-03T14:38:58.719Z,14.60
2022-10-03T14:41:29.300Z,14.60
2022-10-03T14:43:58.818Z,14.70
2022-10-03T14:46:27.687Z,15.90
2022-10-03T14:49:05.356Z,15.60
2022-10-03T14:51:34.650Z,14.50
2022-10-03T14:54:16.274Z,14.50
2022-10-03T14:56:44.319Z,14.40
2022-10-03T14:59:12.634Z,15.60
2022-10-03T15:01:47.045Z,15.70
2022-10-03T15:04:16.597Z,15.20
2022-10-03T15:06:46.089Z,16.10
2022-10-03T15:09:18.611Z,14.50
2022-10-03T15:12:09.613Z,16.00
2022-10-03T15:14:39.213Z,14.50
2022-10-03T15:17:15.738Z,14.80
2022-10-03T15:19:47.901Z,14.60
2022-10-03T15:22:23.444Z,15.90
2022-10-03T15:24:51.754Z,14.70
2022-10-03T15:27:22.128Z,17.00
2022-10-03T15:29:56.744Z,14.70
2022-10-03T15:32:27.530Z,14.70
2022-10-03T15:35:00.564Z,14.50
2022-10-03T15:37:29.811Z,14.50
2022-10-03T15:39:59.801Z,15.90
2022-10-03T15:42:30.836Z,15.10
2022-10-03T15:45:02.186Z,14.30
2022-10-03T15:47:30.833Z,14.30
2022-10-03T15:50:00.426Z,14.40
2022-10-03T15:52:47.315Z,15.10
2022-10-03T15:55:15.845Z,15.30
2022-10-03T15:57:47.182Z,13.90
2022-10-03T16:00:21.624Z,13.90
2022-10-03T16:02:53.566Z,13.80
2022-10-03T16:05:25.466Z,13.80
2022-10-03T16:08:10.158Z,14.20
2022-10-03T16:10:39.246Z,13.60
2022-10-03T16:13:27.414Z,13.50
2022-10-03T16:16:29.379Z,13.40
2022-10-03T16:19:01.536Z,13.30
2022-10-03T16:21:42.288Z,13.20
2022-10-03T16:24:16.707Z,13.20
2022-10-03T16:26:50.076Z,13.30
2022-10-03T16:29:20.089Z,13.10
2022-10-03T16:31:50.593Z,13.70
2022-10-03T16:34:18.856Z,13.00
2022-10-03T16:36:46.725Z,13.50
2022-10-03T16:39:18.906Z,14.20
2022-10-03T16:41:47.473Z,14.20
2022-10-03T16:44:23.009Z,13.90
2022-10-03T16:46:50.371Z,12.60
2022-10-03T16:49:46.157Z,13.80
2022-10-03T16:52:15.262Z,13.20
2022-10-03T16:54:42.300Z,12.90
2022-10-03T16:57:12.712Z,12.50
2022-10-03T16:59:42.697Z,12.20
2022-10-03T17:02:12.082Z,12.90
2022-10-03T17:04:40.214Z,13.00
2022-10-03T17:07:12.656Z,12.00
2022-10-03T17:09:52.418Z,11.70
2022-10-03T17:12:20.062Z,11.50
2022-10-03T17:14:47.351Z,13.80
2022-10-03T17:17:32.554Z,11.80
2022-10-03T17:20:01.286Z,11.20
2022-10-03T17:22:40.468Z,11.10
2022-10-03T17:25:27.030Z,11.10
2022-10-03T17:27:53.975Z,10.90
2022-10-03T17:30:29.595Z,12.00
2022-10-03T17:32:58.759Z,10.80
2022-10-03T17:35:31.407Z,11.80
2022-10-03T17:38:44.410Z,12.90
2022-10-03T17:41:19.457Z,10.60
2022-10-03T17:43:46.604Z,10.50
2022-10-03T17:46:20.126Z,12.00
2022-10-03T17:48:58.819Z,10.30
2022-10-03T17:51:31.392Z,10.20
2022-10-03T17:53:59.510Z,10.10
2022-10-03T17:56:27.376Z,10.80
2022-10-03T17:58:59.897Z,9.90
2022-10-03T18:01:33.902Z,9.80
2022-10-03T18:04:02.356Z,9.70
2022-10-03T18:06:28.877Z,10.10
2022-10-03T18:08:56.409Z,9.60
2022-10-03T18:11:24.869Z,9.50
2022-10-03T18:13:53.487Z,9.50
2022-10-03T18:16:22.249Z,10.00
2022-10-03T18:18:54.026Z,9.30
2022-10-03T18:21:20.726Z,9.30
2022-10-03T18:23:55.770Z,9.20
2022-10-03T18:26:27.023Z,9.10
2022-10-03T18:28:53.615Z,9.10
2022-10-03T18:31:22.040Z,9.10
2022-10-03T18:33:57.879Z,9.00
2022-10-03T18:36:30.021Z,8.90
2022-10-03T18:38:58.902Z,8.90
2022-10-03T18:41:25.978Z,8.80
2022-10-03T18:43:58.612Z,8.80
2022-10-03T18:46:27.558Z,8.70
2022-10-03T18:49:28.389Z,8.70
2022-10-03T18:51:48.264Z,8.60
2022-10-03T18:54:24.082Z,8.50
2022-10-03T18:57:17.066Z,9.60
2022-10-03T18:59:46.755Z,8.40
2022-10-03T19:02:18.896Z,8.40
2022-10-03T19:04:49.048Z,8.30
2022-10-03T19:07:15.592Z,8.20
2022-10-03T19:10:01.882Z,8.20
2022-10-03T19:12:33.542Z,8.20
2022-10-03T19:15:19.096Z,8.10
2022-10-03T19:18:04.256Z,8.10
2022-10-03T19:20:33.040Z,8.10
2022-10-03T19:23:03.488Z,8.10
2022-10-03T19:25:30.441Z,8.00
2022-10-03T19:28:23.197Z,8.90
2022-10-03T19:30:58.402Z,8.00
2022-10-03T19:33:26.673Z,8.00
2022-10-03T19:35:55.928Z,8.00
2022-10-03T19:38:24.700Z,8.10
2022-10-03T19:41:09.774Z,8.00
2022-10-03T19:43:40.180Z,7.90
2022-10-03T19:46:25.393Z,7.90
2022-10-03T19:48:57.965Z,7.80
2022-10-03T19:51:25.949Z,7.80
2022-10-03T19:53:54.124Z,7.70
2022-10-03T19:56:21.830Z,7.70
2022-10-03T19:58:58.261Z,7.70
2022-10-03T20:01:25.343Z,9.00
2022-10-03T20:03:54.289Z,7.60
2022-10-03T20:06:29.249Z,7.50
2022-10-03T20:08:58.066Z,7.30
2022-10-03T20:11:43.775Z,7.20
2022-10-03T20:14:15.210Z,7.20
2022-10-03T20:16:43.432Z,7.10
2022-10-03T20:19:15.292Z,7.20
2022-10-03T20:21:42.200Z,7.20
2022-10-03T20:24:18.224Z,7.20
2022-10-03T20:26:48.759Z,7.20
2022-10-03T20:29:15.310Z,7.20
2022-10-03T20:31:43.241Z,7.20
2022-10-03T20:34:15.108Z,7.20
2022-10-03T20:36:44.217Z,7.10
2022-10-03T20:39:12.969Z,7.10
2022-10-03T20:41:42.800Z,7.00
2022-10-03T20:44:29.563Z,7.00
2022-10-03T20:47:16.969Z,7.00
2022-10-03T20:49:48.356Z,6.90
2022-10-03T20:52:21.525Z,7.00
2022-10-03T20:54:48.130Z,6.90
2022-10-03T20:57:19.697Z,6.90
2022-10-03T20:59:47.901Z,6.90
2022-10-03T21:02:25.895Z,6.90
2022-10-03T21:04:58.664Z,6.90
2022-10-03T21:07:28.341Z,6.90
2022-10-03T21:10:02.216Z,6.80
2022-10-03T21:12:35.485Z,6.90
2022-10-03T21:15:11.138Z,6.90
2022-10-03T21:17:38.110Z,8.30
2022-10-03T21:20:07.246Z,6.90
2022-10-03T21:22:35.360Z,6.90
2022-10-03T21:25:07.596Z,7.50
2022-10-03T21:27:34.504Z,6.80
2022-10-03T21:30:04.571Z,8.10
2022-10-03T21:32:31.130Z,6.80
2022-10-03T21:34:57.669Z,7.80
2022-10-03T21:37:45.219Z,6.70
2022-10-03T21:40:11.777Z,6.60
2022-10-03T21:42:57.432Z,6.60
2022-10-03T21:45:42.939Z,6.50
2022-10-03T21:48:09.565Z,6.50
2022-10-03T21:50:43.058Z,6.50
2022-10-03T21:53:24.758Z,6.50
2022-10-03T21:55:58.729Z,6.40
2022-10-03T21:58:44.084Z,6.40
2022-10-03T22:01:12.811Z,6.20
2022-10-03T22:03:45.217Z,6.20
2022-10-03T22:06:20.182Z,6.20
2022-10-03T22:08:48.007Z,6.20
2022-10-03T22:11:23.273Z,6.20
2022-10-03T22:14:08.543Z,6.30
2022-10-03T22:16:51.965Z,6.30
2022-10-03T22:19:20.846Z,6.30
2022-10-03T22:22:05.986Z,6.30
2022-10-03T22:24:35.646Z,6.20
2022-10-03T22:27:08.179Z,6.20
2022-10-03T22:29:53.188Z,6.20
2022-10-03T22:32:27.229Z,5.20
2022-10-03T22:34:53.995Z,6.10
2022-10-03T22:37:21.416Z,6.10
2022-10-03T22:39:48.477Z,6.10
2022-10-03T22:42:15.579Z,6.10
2022-10-03T22:44:47.189Z,6.00
2022-10-03T22:47:20.889Z,7.20
2022-10-03T22:49:48.493Z,5.90
2022-10-03T22:52:24.141Z,5.90
2022-10-03T22:54:52.030Z,5.90
2022-10-03T22:57:19.034Z,5.80
2022-10-03T22:59:47.902Z,6.70
2022-10-03T23:02:15.424Z,5.70
2022-10-03T23:04:50.684Z,5.70
2022-10-03T23:07:36.132Z,5.70
2022-10-03T23:10:18.529Z,5.70
2022-10-03T23:12:47.519Z,5.80
2022-10-03T23:15:15.880Z,5.90
2022-10-03T23:17:42.441Z,5.80
2022-10-03T23:20:23.273Z,5.80
2022-10-03T23:22:53.370Z,5.80
2022-10-03T23:25:23.018Z,5.90
2022-10-03T23:27:52.915Z,5.90
2022-10-03T23:30:20.121Z,5.90
2022-10-03T23:32:46.654Z,6.00
2022-10-03T23:35:19.325Z,5.90
2022-10-03T23:37:46.917Z,6.00
2022-10-03T23:40:19.805Z,6.00
2022-10-03T23:42:55.625Z,5.90
2022-10-03T23:45:24.174Z,5.80
2022-10-03T23:47:59.769Z,5.70
2022-10-03T23:50:33.543Z,5.60
2022-10-03T23:53:00.631Z,5.70
2022-10-03T23:55:29.782Z,5.60
2022-10-03T23:57:56.509Z,5.60
